Terminal Aerodrome Forecast
Issued by NWS

Home | Current Version | Previous Version | Text Only | Print | Product List | Glossary On
Versions: 1 2 3 4 5 6 7 8 9 10 11 12 13 14 15 16 17 18
000
FTUS41 KPBZ 271700
TAFMGW
TAF
KMGW 271731Z 2718/2818 19008KT P6SM SCT070
     FM280000 20010KT P6SM VCSH OVC035
      TEMPO 2802/2805 5SM -SHRA OVC015
     FM280500 25009KT P6SM VCSH SCT008 OVC015
     FM280900 27004KT 4SM -RA BR OVC007
     FM281500 30006KT P6SM OVC020=

USA.gov is the U.S. government's official web portal to all federal, state and local government web resources and services.